Time;durP1;ratioP1;P1;durP2;ratioP2;P2;SDS_P1;SDS_P2;PMS_P1;PMS_P2;Temp;Humidity;BMP_temperature;BMP_pressure;BME280_temperature;BME280_humidity;BME280_pressure;Samples;Min_cycle;Max_cycle;Signal;HPM_P1;HPM_P2
2024/04/02 00:00:04;;;;;;;1.80;0.90;;;9.60;80.80;;;;;;4212165;28;20231;-56
2024/04/02 00:02:05;;;;;;;0.80;0.77;;;9.50;99.90;;;;;;4212228;28;20214;-56
2024/04/02 00:04:13;;;;;;;1.57;0.90;;;9.60;99.90;;;;;;4211335;28;20184;-57
2024/04/02 00:06:14;;;;;;;1.20;0.77;;;9.60;78.50;;;;;;4212039;28;20184;-57
2024/04/02 00:08:14;;;;;;;2.93;0.57;;;9.50;99.90;;;;;;4210382;28;20287;-57
2024/04/02 00:10:15;;;;;;;2.13;0.90;;;9.60;99.90;;;;;;4211933;28;20245;-57
2024/04/02 00:12:16;;;;;;;2.43;0.70;;;9.50;22.30;;;;;;4209679;28;20226;-57
2024/04/02 00:14:16;;;;;;;1.13;0.70;;;9.60;99.90;;;;;;4211056;28;20709;-57
2024/04/02 00:16:17;;;;;;;2.00;0.77;;;9.60;33.50;;;;;;4211892;28;20185;-57
2024/04/02 00:18:21;;;;;;;1.07;0.63;;;9.60;72.80;;;;;;4212082;28;20181;-57
2024/04/02 00:20:24;;;;;;;1.27;0.90;;;9.50;24.80;;;;;;4212034;28;20181;-57
2024/04/02 00:22:25;;;;;;;1.50;0.83;;;9.50;99.90;;;;;;4212073;28;20189;-57
2024/04/02 00:24:25;;;;;;;1.17;0.90;;;9.50;99.90;;;;;;4211273;28;20184;-57
2024/04/02 00:26:26;;;;;;;2.50;0.70;;;9.50;99.90;;;;;;4211842;28;20184;-57
2024/04/02 00:28:27;;;;;;;1.13;0.73;;;9.50;99.90;;;;;;4211579;28;20228;-57
2024/04/02 00:30:29;;;;;;;1.27;0.60;;;9.50;99.90;;;;;;4211850;28;20181;-57
2024/04/02 00:32:30;;;;;;;1.37;0.73;;;9.50;99.90;;;;;;4212184;28;20581;-57
2024/04/02 00:34:31;;;;;;;1.53;0.73;;;9.40;99.90;;;;;;4211278;28;20508;-57
2024/04/02 00:36:31;;;;;;;4.67;1.10;;;9.40;99.90;;;;;;4211117;28;20222;-57
2024/04/02 00:38:33;;;;;;;2.77;1.07;;;9.50;99.90;;;;;;4211923;28;20292;-57
2024/04/02 00:40:39;;;;;;;0.70;0.67;;;9.40;99.90;;;;;;4212030;28;20180;-57
2024/04/02 00:42:40;;;;;;;1.90;0.73;;;9.40;1.00;;;;;;4206105;28;20271;-57
2024/04/02 00:44:41;;;;;;;1.27;0.80;;;9.40;1.00;;;;;;4209541;28;20193;-57
2024/04/02 00:46:42;;;;;;;2.13;0.80;;;9.30;1.00;;;;;;4212026;28;20261;-57
2024/04/02 00:48:42;;;;;;;0.97;0.70;;;9.40;1.00;;;;;;4211437;28;20196;-57
2024/04/02 00:50:44;;;;;;;2.27;0.77;;;9.40;99.90;;;;;;4211682;28;20622;-57
2024/04/02 00:52:45;;;;;;;0.80;0.60;;;9.30;99.90;;;;;;4211566;28;20181;-57
2024/04/02 00:54:45;;;;;;;2.33;0.90;;;9.30;99.90;;;;;;4210750;28;20630;-57
2024/04/02 00:56:46;;;;;;;0.90;0.80;;;9.30;1.00;;;;;;4211750;28;20173;-56
2024/04/02 00:58:47;;;;;;;1.10;0.90;;;9.30;1.00;;;;;;4211313;28;20188;-56
2024/04/02 01:00:49;;;;;;;1.50;0.80;;;9.30;5.20;;;;;;4211755;28;20188;-57
2024/04/02 01:02:50;;;;;;;1.77;0.90;;;9.30;99.90;;;;;;4211946;28;20275;-57
2024/04/02 01:04:51;;;;;;;1.27;0.77;;;9.30;99.90;;;;;;4210956;28;20656;-57
2024/04/02 01:06:51;;;;;;;1.73;0.93;;;9.30;1.00;;;;;;4211480;28;20181;-57
2024/04/02 01:08:52;;;;;;;2.60;0.77;;;9.30;1.00;;;;;;4211169;28;20205;-56
2024/04/02 01:10:54;;;;;;;1.47;0.70;;;9.30;1.00;;;;;;4203767;28;20662;-56
2024/04/02 01:12:55;;;;;;;0.93;0.63;;;9.30;99.90;;;;;;4211594;28;20187;-57
2024/04/02 01:14:56;;;;;;;1.80;0.90;;;9.30;99.90;;;;;;4203286;28;20678;-56
2024/04/02 01:16:56;;;;;;;0.97;0.63;;;9.20;99.90;;;;;;4208215;28;20418;-57
2024/04/02 01:18:57;;;;;;;1.07;0.70;;;9.20;1.00;;;;;;4198695;28;20185;-56
2024/04/02 01:20:57;;;;;;;1.50;0.90;;;9.20;1.00;;;;;;4211947;28;20643;-57
2024/04/02 01:22:58;;;;;;;1.43;1.00;;;9.20;1.00;;;;;;4212473;28;20530;-57
2024/04/02 01:24:59;;;;;;;2.37;1.00;;;9.20;1.00;;;;;;4214335;28;20709;-57
2024/04/02 01:27:02;;;;;;;1.90;1.00;;;9.20;99.90;;;;;;4214562;28;20197;-57
2024/04/02 01:29:03;;;;;;;1.03;0.80;;;9.20;1.00;;;;;;4214582;28;20216;-57
2024/04/02 01:31:04;;;;;;;1.33;0.80;;;9.20;1.00;;;;;;4214663;28;20208;-57
2024/04/02 01:33:04;;;;;;;2.87;1.03;;;9.10;74.60;;;;;;4214143;28;20226;-57
2024/04/02 01:35:05;;;;;;;1.40;0.93;;;9.10;1.00;;;;;;4200480;28;20177;-57
2024/04/02 01:37:06;;;;;;;1.57;0.90;;;9.10;1.00;;;;;;4213325;28;20184;-57
2024/04/02 01:39:09;;;;;;;1.90;1.10;;;9.10;99.90;;;;;;4214300;28;20185;-56
2024/04/02 01:41:10;;;;;;;1.43;0.80;;;9.10;99.90;;;;;;4209543;28;20181;-57
2024/04/02 01:43:11;;;;;;;1.23;0.90;;;9.10;99.90;;;;;;4212430;28;20180;-57
2024/04/02 01:45:11;;;;;;;2.07;0.83;;;9.10;1.00;;;;;;4214312;28;20246;-57
2024/04/02 01:47:12;;;;;;;1.13;0.70;;;9.00;99.90;;;;;;4214365;28;20212;-57
2024/04/02 01:49:12;;;;;;;1.87;1.00;;;9.00;97.90;;;;;;4213750;28;20669;-57
2024/04/02 01:51:13;;;;;;;2.17;0.80;;;9.00;99.90;;;;;;4213883;28;20189;-57
2024/04/02 01:53:13;;;;;;;1.47;1.00;;;9.00;99.90;;;;;;4213206;28;20180;-57
2024/04/02 01:55:14;;;;;;;2.23;1.10;;;9.00;99.90;;;;;;4213942;28;20576;-57
2024/04/02 01:57:14;;;;;;;1.57;1.00;;;9.00;99.90;;;;;;4213985;28;20169;-57
2024/04/02 01:59:15;;;;;;;1.13;0.70;;;9.00;1.00;;;;;;4213695;28;20197;-57
2024/04/02 02:01:16;;;;;;;2.43;1.00;;;9.00;1.00;;;;;;4214183;28;20657;-57
2024/04/02 02:03:17;;;;;;;2.47;1.20;;;9.00;1.00;;;;;;4213491;28;20363;-57
2024/04/02 02:05:18;;;;;;;2.37;0.80;;;9.00;1.00;;;;;;4214069;28;20181;-57
2024/04/02 02:07:18;;;;;;;2.17;1.00;;;9.00;1.00;;;;;;4214005;28;20184;-57
2024/04/02 02:09:19;;;;;;;0.90;0.70;;;9.10;1.00;;;;;;4213975;28;20618;-57
2024/04/02 02:11:19;;;;;;;1.90;0.90;;;9.00;1.00;;;;;;4205820;28;20206;-57
2024/04/02 02:13:20;;;;;;;1.47;0.80;;;9.10;1.00;;;;;;4212903;28;20193;-57
2024/04/02 02:15:20;;;;;;;1.50;1.10;;;9.10;1.00;;;;;;4213572;28;20180;-57
2024/04/02 02:17:21;;;;;;;1.60;0.83;;;9.10;1.00;;;;;;4213710;28;20215;-57
2024/04/02 02:19:21;;;;;;;1.57;0.93;;;9.10;1.00;;;;;;4213520;28;20626;-57
2024/04/02 02:21:22;;;;;;;2.77;1.00;;;9.10;1.00;;;;;;4213679;28;20187;-57
2024/04/02 02:23:23;;;;;;;2.10;0.97;;;9.10;99.90;;;;;;4212752;28;20219;-57
2024/04/02 02:25:24;;;;;;;2.23;1.00;;;9.00;99.90;;;;;;4213990;28;20184;-57
2024/04/02 02:27:25;;;;;;;2.37;1.00;;;9.00;99.90;;;;;;4213556;28;20208;-57
2024/04/02 02:29:26;;;;;;;3.50;1.03;;;9.00;99.90;;;;;;4213669;28;20177;-57
2024/04/02 02:31:26;;;;;;;2.73;0.90;;;9.00;1.00;;;;;;4213610;28;20502;-57
2024/04/02 02:33:27;;;;;;;1.13;0.80;;;9.00;1.00;;;;;;4212821;28;20267;-57
2024/04/02 02:35:27;;;;;;;1.73;0.90;;;9.00;1.00;;;;;;4212208;28;20173;-57
2024/04/02 02:37:28;;;;;;;2.00;0.90;;;9.00;1.00;;;;;;4213381;28;20571;-57
2024/04/02 02:39:28;;;;;;;2.63;1.30;;;9.00;1.00;;;;;;4213385;28;20181;-57
2024/04/02 02:41:30;;;;;;;1.97;0.90;;;9.00;99.90;;;;;;4207184;28;20616;-56
2024/04/02 02:43:30;;;;;;;1.37;0.83;;;9.00;99.90;;;;;;4212646;28;20626;-57
2024/04/02 02:45:31;;;;;;;3.83;1.00;;;9.00;99.90;;;;;;4213554;28;20189;-57
2024/04/02 02:47:31;;;;;;;1.63;1.00;;;9.00;1.00;;;;;;4213279;28;20217;-57
2024/04/02 02:49:32;;;;;;;1.40;0.97;;;9.00;99.90;;;;;;4212981;28;20180;-57
2024/04/02 02:51:32;;;;;;;1.27;0.80;;;9.00;1.00;;;;;;4213495;28;20561;-57
2024/04/02 02:53:33;;;;;;;2.60;0.97;;;9.00;1.00;;;;;;4212119;28;20684;-57
2024/04/02 02:55:33;;;;;;;3.77;1.23;;;9.00;1.00;;;;;;4213279;28;20214;-57
2024/04/02 02:57:34;;;;;;;1.30;0.90;;;9.00;1.00;;;;;;4212848;28;20271;-57
2024/04/02 02:59:34;;;;;;;2.00;1.07;;;9.00;1.00;;;;;;4212893;28;20201;-57
2024/04/02 03:01:35;;;;;;;1.70;0.60;;;9.10;1.00;;;;;;4213121;28;20730;-57
2024/04/02 03:03:36;;;;;;;2.33;0.80;;;9.00;1.00;;;;;;4212028;28;20184;-57
2024/04/02 03:05:36;;;;;;;2.03;1.00;;;9.10;1.00;;;;;;4212750;28;20192;-58
2024/04/02 03:07:37;;;;;;;3.43;0.77;;;9.00;1.00;;;;;;4211653;28;20208;-57
2024/04/02 03:09:41;;;;;;;1.57;0.90;;;9.10;1.00;;;;;;4212697;28;20173;-57
2024/04/02 03:11:41;;;;;;;2.10;0.90;;;9.10;1.00;;;;;;4213068;28;20185;-57
2024/04/02 03:13:42;;;;;;;1.03;0.90;;;9.10;1.00;;;;;;4211842;28;20196;-57
2024/04/02 03:15:42;;;;;;;1.13;0.80;;;9.00;1.00;;;;;;4212732;28;20191;-57
2024/04/02 03:17:43;;;;;;;1.93;1.07;;;9.10;1.00;;;;;;4212878;28;20234;-57
2024/04/02 03:19:44;;;;;;;2.50;1.37;;;9.10;1.00;;;;;;4212477;28;20180;-56
2024/04/02 03:21:44;;;;;;;1.20;0.80;;;9.10;1.00;;;;;;4212979;28;20747;-57
2024/04/02 03:23:45;;;;;;;2.00;1.10;;;9.10;1.00;;;;;;4211588;28;20230;-57
2024/04/02 03:25:56;;;;;;;1.57;0.90;;;9.10;1.00;;;;;;4212512;28;20237;-57
2024/04/02 03:27:56;;;;;;;1.10;0.67;;;9.10;1.00;;;;;;4212986;28;20352;-57
2024/04/02 03:29:57;;;;;;;2.90;0.73;;;9.20;1.00;;;;;;4212547;28;20202;-57
2024/04/02 03:31:58;;;;;;;1.33;0.80;;;9.20;1.00;;;;;;4212845;28;20181;-57
2024/04/02 03:33:58;;;;;;;2.20;0.90;;;9.20;1.00;;;;;;4212023;28;20683;-57
2024/04/02 03:36:04;;;;;;;1.73;1.03;;;9.20;1.00;;;;;;4211992;28;20574;-57
2024/04/02 03:38:05;;;;;;;1.03;0.83;;;9.20;9.60;;;;;;4212530;28;20180;-57
2024/04/02 03:40:06;;;;;;;1.33;0.80;;;9.20;18.50;;;;;;4212447;28;20338;-57
2024/04/02 03:42:07;;;;;;;1.63;0.90;;;9.20;31.30;;;;;;4206491;28;20607;-57
2024/04/02 03:44:07;;;;;;;2.73;1.10;;;9.10;40.20;;;;;;4211566;28;20185;-57
2024/04/02 03:46:10;;;;;;;1.57;0.90;;;9.10;50.00;;;;;;4212269;28;20200;-57
2024/04/02 03:48:10;;;;;;;2.87;1.00;;;9.10;51.10;;;;;;4212570;28;20215;-57
2024/04/02 03:50:11;;;;;;;1.60;0.87;;;9.10;56.30;;;;;;4212188;28;20181;-58
2024/04/02 03:52:11;;;;;;;1.97;1.00;;;9.10;57.00;;;;;;4212591;28;20329;-57
2024/04/02 03:54:12;;;;;;;1.87;0.80;;;9.20;61.10;;;;;;4211554;28;20184;-57
2024/04/02 03:56:12;;;;;;;1.83;0.97;;;9.20;60.50;;;;;;4211995;28;20191;-57
2024/04/02 03:58:13;;;;;;;3.07;1.10;;;9.20;58.30;;;;;;4212307;28;20226;-57
2024/04/02 04:00:13;;;;;;;3.87;1.40;;;9.20;61.00;;;;;;4211844;28;20210;-57
2024/04/02 04:02:14;;;;;;;2.37;1.10;;;9.20;61.60;;;;;;4212044;28;20185;-57
2024/04/02 04:04:14;;;;;;;1.50;1.00;;;9.20;63.20;;;;;;4211200;28;20185;-57
2024/04/02 04:06:15;;;;;;;2.83;1.13;;;9.20;69.00;;;;;;4212063;28;20268;-57
2024/04/02 04:08:15;;;;;;;2.93;1.20;;;9.20;67.40;;;;;;4212341;28;20253;-57
2024/04/02 04:10:17;;;;;;;3.13;0.90;;;9.20;70.10;;;;;;4211882;28;20874;-57
2024/04/02 04:12:17;;;;;;;1.37;0.80;;;9.20;65.00;;;;;;4210717;28;20444;-57
2024/04/02 04:14:18;;;;;;;2.83;0.90;;;9.30;63.70;;;;;;4211032;28;20567;-57
2024/04/02 04:16:19;;;;;;;2.53;1.00;;;9.30;67.00;;;;;;4212193;28;20187;-57
2024/04/02 04:18:20;;;;;;;1.57;0.90;;;9.30;65.80;;;;;;4211821;28;20215;-57
2024/04/02 04:20:21;;;;;;;2.00;1.00;;;9.30;63.50;;;;;;4211535;28;20208;-57
2024/04/02 04:22:21;;;;;;;2.93;1.10;;;9.30;64.00;;;;;;4211848;28;20565;-57
2024/04/02 04:24:22;;;;;;;3.30;0.90;;;9.30;63.20;;;;;;4211085;28;20643;-57
2024/04/02 04:26:23;;;;;;;3.13;1.17;;;9.30;68.20;;;;;;4211805;28;20227;-57
2024/04/02 04:28:24;;;;;;;2.10;1.10;;;9.30;67.30;;;;;;4211486;28;20722;-57
2024/04/02 04:30:25;;;;;;;2.93;1.23;;;9.30;65.30;;;;;;4211872;28;20187;-57
2024/04/02 04:32:26;;;;;;;2.40;1.20;;;9.30;67.10;;;;;;4211989;28;20204;-57
2024/04/02 04:34:27;;;;;;;2.00;1.10;;;9.30;70.10;;;;;;4211124;28;20180;-57
2024/04/02 04:36:27;;;;;;;3.77;1.40;;;9.30;76.40;;;;;;4211584;28;20177;-57
2024/04/02 04:38:28;;;;;;;2.03;0.90;;;9.30;72.60;;;;;;4211779;28;20654;-57
2024/04/02 04:40:28;;;;;;;2.57;1.10;;;9.30;70.80;;;;;;4211860;28;20663;-57
2024/04/02 04:42:32;;;;;;;1.77;1.10;;;9.30;67.40;;;;;;4211876;28;20189;-57
2024/04/02 04:44:32;;;;;;;2.03;1.10;;;9.40;65.40;;;;;;4210679;28;20271;-57
2024/04/02 04:46:33;;;;;;;3.37;1.20;;;9.40;64.60;;;;;;4210258;28;20199;-57
2024/04/02 04:48:34;;;;;;;1.97;0.97;;;9.40;66.40;;;;;;4211465;28;20211;-57
2024/04/02 04:50:35;;;;;;;1.63;1.00;;;9.40;62.30;;;;;;4212117;28;20191;-57
2024/04/02 04:52:35;;;;;;;4.93;1.30;;;9.40;68.50;;;;;;4211976;28;20184;-57
2024/04/02 04:54:36;;;;;;;3.33;1.20;;;9.40;70.10;;;;;;4210911;28;20665;-57
2024/04/02 04:56:36;;;;;;;2.60;1.20;;;9.40;64.20;;;;;;4211956;28;20192;-57
2024/04/02 04:58:37;;;;;;;4.23;1.40;;;9.40;61.90;;;;;;4213423;28;20234;-57
2024/04/02 05:00:37;;;;;;;2.93;1.30;;;9.40;62.80;;;;;;4214869;28;20237;-57
2024/04/02 05:02:39;;;;;;;3.10;1.40;;;9.40;63.90;;;;;;4214725;28;20271;-57
2024/04/02 05:04:39;;;;;;;2.27;1.20;;;9.40;60.40;;;;;;4214044;28;20207;-57
2024/04/02 05:06:42;;;;;;;3.60;0.93;;;9.40;59.50;;;;;;4214765;28;20188;-57
2024/04/02 05:08:43;;;;;;;3.27;1.30;;;9.40;57.40;;;;;;4214582;28;20561;-57
2024/04/02 05:10:47;;;;;;;4.13;1.40;;;9.40;55.30;;;;;;4206682;28;20173;-57
2024/04/02 05:12:48;;;;;;;3.37;1.40;;;9.40;57.10;;;;;;4211297;28;20665;-57
2024/04/02 05:14:48;;;;;;;3.57;1.37;;;9.40;60.50;;;;;;4214598;28;20295;-57
2024/04/02 05:16:49;;;;;;;3.00;1.20;;;9.40;59.90;;;;;;4214790;28;20177;-57
2024/04/02 05:18:49;;;;;;;3.30;1.40;;;9.40;58.20;;;;;;4214591;28;20523;-57
2024/04/02 05:20:50;;;;;;;3.73;1.20;;;9.40;57.70;;;;;;4214601;28;20189;-57
2024/04/02 05:22:52;;;;;;;5.77;1.20;;;9.40;60.70;;;;;;4213904;28;20196;-57
2024/04/02 05:24:52;;;;;;;4.23;1.30;;;9.40;64.40;;;;;;4214603;28;20185;-57
2024/04/02 05:26:53;;;;;;;3.50;1.10;;;9.40;61.10;;;;;;4214509;28;20238;-57
2024/04/02 05:28:53;;;;;;;3.87;1.47;;;9.40;60.90;;;;;;4213979;28;20204;-56
2024/04/02 05:30:54;;;;;;;5.10;1.63;;;9.40;58.50;;;;;;4205947;28;20172;-57
2024/04/02 05:32:55;;;;;;;3.23;1.30;;;9.40;56.70;;;;;;4213735;28;20184;-57
2024/04/02 05:34:56;;;;;;;4.53;1.57;;;9.40;54.40;;;;;;4213719;28;20176;-57
2024/04/02 05:36:56;;;;;;;2.73;1.60;;;9.40;52.90;;;;;;4214672;28;20264;-57
2024/04/02 05:38:57;;;;;;;3.40;1.70;;;9.40;54.50;;;;;;4214403;28;20702;-57
2024/04/02 05:40:59;;;;;;;6.40;1.50;;;9.40;45.70;;;;;;4211570;28;20185;-57
2024/04/02 05:42:59;;;;;;;3.70;1.30;;;9.50;40.40;;;;;;4210202;28;20538;-57
2024/04/02 05:45:00;;;;;;;5.90;1.77;;;9.50;36.00;;;;;;4214013;28;20228;-57
2024/04/02 05:47:01;;;;;;;5.40;1.50;;;9.50;22.20;;;;;;4214156;28;20176;-57
2024/04/02 05:49:02;;;;;;;6.47;1.80;;;9.50;14.30;;;;;;4213914;28;20674;-57
2024/04/02 05:51:03;;;;;;;3.30;1.23;;;9.50;18.10;;;;;;4214012;28;20179;-57
2024/04/02 05:53:04;;;;;;;5.23;1.40;;;9.50;17.80;;;;;;4213404;28;20177;-57
2024/04/02 05:55:05;;;;;;;3.43;1.20;;;9.50;17.50;;;;;;4214144;28;20186;-57
2024/04/02 05:57:05;;;;;;;3.60;1.30;;;9.50;18.40;;;;;;4214531;28;20350;-57
2024/04/02 05:59:06;;;;;;;3.93;1.30;;;9.60;18.70;;;;;;4213906;28;20678;-57
2024/04/02 06:01:07;;;;;;;5.07;1.47;;;9.60;9.90;;;;;;4213907;28;20261;-57
2024/04/02 06:03:08;;;;;;;5.33;1.80;;;9.60;10.20;;;;;;4213387;28;20188;-57
2024/04/02 06:05:08;;;;;;;5.17;1.70;;;9.60;1.10;;;;;;4213682;28;20185;-57
2024/04/02 06:07:09;;;;;;;5.17;1.40;;;9.60;1.00;;;;;;4213941;28;20180;-57
2024/04/02 06:09:11;;;;;;;7.07;1.67;;;9.60;1.00;;;;;;4213071;28;20577;-57
2024/04/02 06:11:12;;;;;;;2.57;1.40;;;9.70;1.00;;;;;;4204939;28;20422;-57
2024/04/02 06:13:13;;;;;;;3.20;1.37;;;9.70;1.00;;;;;;4213166;28;20177;-57
2024/04/02 06:15:13;;;;;;;3.07;1.63;;;9.70;1.00;;;;;;4213723;28;20183;-57
2024/04/02 06:17:14;;;;;;;4.60;1.87;;;9.70;1.00;;;;;;4213587;28;20208;-57
2024/04/02 06:19:14;;;;;;;5.57;1.80;;;9.60;1.00;;;;;;4212242;28;20238;-57
2024/04/02 06:21:15;;;;;;;4.27;1.60;;;9.60;1.00;;;;;;4213623;28;20177;-57
2024/04/02 06:23:16;;;;;;;5.07;1.70;;;9.70;1.00;;;;;;4213170;28;20210;-57
2024/04/02 06:25:17;;;;;;;3.00;1.33;;;9.70;1.00;;;;;;4213407;28;20677;-57
2024/04/02 06:27:17;;;;;;;4.30;1.63;;;9.70;1.00;;;;;;4213460;28;20216;-57
2024/04/02 06:29:18;;;;;;;5.47;1.70;;;9.70;1.00;;;;;;4213268;28;20211;-57
2024/04/02 06:31:19;;;;;;;5.60;1.80;;;9.70;1.00;;;;;;4213445;28;20234;-57
2024/04/02 06:33:19;;;;;;;4.73;1.50;;;9.70;1.00;;;;;;4212760;28;20564;-57
2024/04/02 06:35:20;;;;;;;3.87;1.40;;;9.80;1.00;;;;;;4212798;28;20177;-57
2024/04/02 06:37:21;;;;;;;5.40;1.90;;;9.80;1.00;;;;;;4213752;28;20184;-57
2024/04/02 06:39:21;;;;;;;5.33;1.60;;;9.80;1.00;;;;;;4213615;28;20317;-57
2024/04/02 06:41:22;;;;;;;4.73;1.20;;;9.80;1.00;;;;;;4213367;28;20177;-57
2024/04/02 06:43:23;;;;;;;7.13;2.00;;;9.80;1.00;;;;;;4212586;28;20172;-57
2024/04/02 06:45:23;;;;;;;3.37;1.47;;;9.90;1.00;;;;;;4213236;28;20180;-57
2024/04/02 06:47:24;;;;;;;5.33;1.60;;;10.00;1.00;;;;;;4213134;28;20181;-57
2024/04/02 06:49:25;;;;;;;4.17;1.47;;;10.00;1.00;;;;;;4212883;28;20551;-57
2024/04/02 06:51:26;;;;;;;3.63;1.67;;;10.00;99.90;;;;;;4213078;28;20184;-57
2024/04/02 06:53:27;;;;;;;7.10;1.93;;;10.00;1.00;;;;;;4212590;28;20173;-57
2024/04/02 06:55:29;;;;;;;4.00;1.50;;;10.00;1.00;;;;;;4213162;28;20180;-57
2024/04/02 06:57:29;;;;;;;5.97;1.40;;;10.00;1.00;;;;;;4212958;28;20237;-57
2024/04/02 06:59:30;;;;;;;7.57;1.83;;;10.00;99.90;;;;;;4212901;28;20200;-57
2024/04/02 07:01:31;;;;;;;5.57;1.63;;;10.10;99.90;;;;;;4213228;28;20180;-57
2024/04/02 07:03:31;;;;;;;5.93;2.00;;;10.00;1.00;;;;;;4212209;28;20187;-57
2024/04/02 07:05:32;;;;;;;3.43;1.37;;;10.10;1.00;;;;;;4213021;28;20190;-57
2024/04/02 07:07:32;;;;;;;5.87;1.50;;;10.10;1.00;;;;;;4212983;28;20435;-57
2024/04/02 07:09:34;;;;;;;4.23;1.30;;;10.10;99.90;;;;;;4212939;28;20211;-57
2024/04/02 07:11:35;;;;;;;7.13;1.60;;;10.10;99.90;;;;;;4202751;28;20178;-57
2024/04/02 07:13:35;;;;;;;7.90;1.70;;;10.10;1.00;;;;;;4206947;28;20181;-57
2024/04/02 07:15:36;;;;;;;4.57;1.40;;;10.10;41.80;;;;;;4212353;28;20666;-57
2024/04/02 07:17:36;;;;;;;4.90;1.50;;;10.10;1.00;;;;;;4212857;28;20177;-57
2024/04/02 07:19:37;;;;;;;6.27;1.80;;;10.10;99.90;;;;;;4212933;28;20177;-57
2024/04/02 07:21:38;;;;;;;4.67;1.60;;;10.10;99.90;;;;;;4212475;28;20183;-57
2024/04/02 07:23:40;;;;;;;4.33;1.50;;;10.10;1.00;;;;;;4211601;28;20234;-57
2024/04/02 07:25:40;;;;;;;5.10;1.37;;;10.10;1.00;;;;;;4212419;28;20188;-57
2024/04/02 07:27:41;;;;;;;4.87;1.50;;;10.10;1.00;;;;;;4212390;28;20184;-57
2024/04/02 07:29:42;;;;;;;3.50;1.40;;;10.10;99.90;;;;;;4212485;28;20184;-57
2024/04/02 07:31:42;;;;;;;3.67;1.50;;;10.00;1.00;;;;;;4212488;28;20184;-57
2024/04/02 07:33:43;;;;;;;5.27;1.50;;;10.00;1.00;;;;;;4211686;28;20544;-57
2024/04/02 07:35:44;;;;;;;7.30;1.77;;;10.10;99.90;;;;;;4212226;28;20208;-57
2024/04/02 07:37:44;;;;;;;5.23;1.50;;;10.10;1.00;;;;;;4212481;28;20691;-57
2024/04/02 07:39:45;;;;;;;4.67;1.87;;;10.10;1.00;;;;;;4212213;28;20185;-57
2024/04/02 07:41:45;;;;;;;5.00;1.50;;;10.20;1.00;;;;;;4205361;28;20176;-57
2024/04/02 07:43:46;;;;;;;4.07;1.30;;;10.20;1.00;;;;;;4211762;28;20188;-57
2024/04/02 07:45:52;;;;;;;6.73;1.80;;;10.30;99.90;;;;;;4194411;28;20648;-57
2024/04/02 07:47:53;;;;;;;5.43;1.53;;;10.30;1.00;;;;;;4212057;28;20200;-57
2024/04/02 07:49:53;;;;;;;4.20;1.70;;;10.30;1.00;;;;;;4212023;28;20295;-57
2024/04/02 07:51:54;;;;;;;6.50;1.70;;;10.30;99.90;;;;;;4212385;28;20176;-57
2024/04/02 07:53:55;;;;;;;4.87;1.50;;;10.30;1.00;;;;;;4211483;28;20189;-57
2024/04/02 07:55:55;;;;;;;4.97;1.60;;;10.30;1.00;;;;;;4211965;28;20188;-57
2024/04/02 07:57:56;;;;;;;3.90;1.60;;;10.30;99.90;;;;;;4222841;28;20646;-57
2024/04/02 07:59:56;;;;;;;3.43;1.40;;;10.30;90.50;;;;;;4212071;28;20197;-57
2024/04/02 08:01:57;;;;;;;5.37;1.90;;;10.30;99.90;;;;;;4211864;28;20184;-57
2024/04/02 08:03:58;;;;;;;5.10;1.77;;;10.30;67.20;;;;;;4211251;28;20653;-57
2024/04/02 08:05:58;;;;;;;4.13;1.80;;;10.30;99.90;;;;;;4212106;28;20218;-57
2024/04/02 08:07:59;;;;;;;6.17;1.70;;;10.30;99.90;;;;;;4210092;28;20680;-57
2024/04/02 08:10:00;;;;;;;4.80;1.60;;;10.30;99.90;;;;;;4207954;28;20463;-57
2024/04/02 08:12:00;;;;;;;3.93;1.47;;;10.30;1.00;;;;;;4208501;28;20173;-57
2024/04/02 08:14:01;;;;;;;5.70;1.50;;;10.30;1.00;;;;;;4209628;28;20183;-57
2024/04/02 08:16:03;;;;;;;5.73;1.30;;;10.30;1.00;;;;;;4211684;28;20176;-57
2024/04/02 08:18:04;;;;;;;3.37;1.40;;;10.20;1.00;;;;;;4210912;28;20270;-57
2024/04/02 08:20:05;;;;;;;5.27;1.67;;;10.20;99.90;;;;;;4212049;28;20185;-57
2024/04/02 08:22:06;;;;;;;5.07;1.60;;;10.20;99.90;;;;;;4212218;28;20181;-57
2024/04/02 08:24:08;;;;;;;4.77;1.50;;;10.20;1.00;;;;;;4214279;28;20539;-57
2024/04/02 08:26:08;;;;;;;4.30;1.40;;;10.20;99.90;;;;;;4212467;28;20188;-57
2024/04/02 08:28:09;;;;;;;2.63;1.37;;;10.30;1.00;;;;;;4211856;28;20212;-57
2024/04/02 08:30:10;;;;;;;3.07;1.30;;;10.30;99.90;;;;;;4211853;28;20312;-57
2024/04/02 08:32:10;;;;;;;3.97;1.20;;;10.30;1.00;;;;;;4212043;28;20249;-57
2024/04/02 08:34:11;;;;;;;3.53;1.10;;;10.30;99.90;;;;;;4210766;28;20208;-57
2024/04/02 08:36:12;;;;;;;5.47;1.67;;;10.30;1.00;;;;;;4211455;28;20165;-57
2024/04/02 08:38:12;;;;;;;3.70;1.30;;;10.30;99.90;;;;;;4211555;28;20180;-57
2024/04/02 08:40:13;;;;;;;4.60;1.40;;;10.40;1.00;;;;;;4211890;28;20180;-57
2024/04/02 08:42:14;;;;;;;3.77;1.20;;;10.40;1.00;;;;;;4211608;28;20547;-57
2024/04/02 08:44:14;;;;;;;3.30;1.43;;;10.40;1.00;;;;;;4211097;28;20637;-57
2024/04/02 08:46:15;;;;;;;4.03;1.50;;;10.40;1.00;;;;;;4211891;28;20212;-57
2024/04/02 08:48:16;;;;;;;4.50;1.60;;;10.40;89.10;;;;;;4211851;28;20200;-56
2024/04/02 08:50:19;;;;;;;4.07;1.60;;;10.40;1.00;;;;;;4211643;28;20303;-57
2024/04/02 08:52:19;;;;;;;4.80;1.40;;;10.40;1.00;;;;;;4211626;28;20173;-57
2024/04/02 08:54:21;;;;;;;5.30;1.70;;;10.40;1.00;;;;;;4210934;28;20191;-57
2024/04/02 08:56:21;;;;;;;2.90;1.10;;;10.40;99.90;;;;;;4211802;28;20653;-57
2024/04/02 08:58:24;;;;;;;3.80;1.57;;;10.40;1.00;;;;;;4211623;28;20505;-57
2024/04/02 09:00:26;;;;;;;3.87;1.50;;;10.30;99.90;;;;;;4211273;28;20689;-57
2024/04/02 09:02:28;;;;;;;3.23;1.53;;;10.30;99.90;;;;;;4210883;28;20271;-57
2024/04/02 09:04:32;;;;;;;4.87;1.50;;;10.40;99.90;;;;;;4211656;28;20701;-57
2024/04/02 09:06:32;;;;;;;2.77;1.20;;;10.40;99.90;;;;;;4212065;28;20188;-57
2024/04/02 09:08:46;;;;;;;3.00;1.20;;;10.40;1.00;;;;;;4211569;28;20661;-57
2024/04/02 09:10:46;;;;;;;5.37;1.40;;;10.40;1.00;;;;;;4203767;28;20426;-57
2024/04/02 09:12:48;;;;;;;2.63;1.27;;;10.30;1.00;;;;;;4210991;28;20606;-57
2024/04/02 09:14:48;;;;;;;5.27;1.30;;;10.40;99.90;;;;;;4211320;28;20181;-57
2024/04/02 09:16:51;;;;;;;4.10;1.43;;;10.40;1.00;;;;;;4211594;28;20188;-57
2024/04/02 09:18:52;;;;;;;2.77;1.30;;;10.40;1.00;;;;;;4211256;28;20187;-57
2024/04/02 09:20:52;;;;;;;3.77;1.37;;;10.50;1.00;;;;;;4211480;28;20674;-57
2024/04/02 09:22:53;;;;;;;4.37;1.40;;;10.40;1.00;;;;;;4210720;28;20185;-57
2024/04/02 09:24:54;;;;;;;3.73;1.40;;;10.40;10.50;;;;;;4211218;28;20183;-57
2024/04/02 09:26:54;;;;;;;5.03;1.43;;;10.50;1.00;;;;;;4211365;28;20189;-56
2024/04/02 09:28:55;;;;;;;3.93;1.20;;;10.50;99.10;;;;;;4211277;28;20215;-56
2024/04/02 09:30:55;;;;;;;3.93;1.43;;;10.50;1.00;;;;;;4211581;28;20709;-56
2024/04/02 09:33:00;;;;;;;3.07;1.40;;;10.50;1.00;;;;;;4210572;28;20208;-56
2024/04/02 09:35:06;;;;;;;4.03;1.30;;;10.60;1.00;;;;;;4210591;28;20185;-56
2024/04/02 09:37:17;;;;;;;4.53;1.33;;;10.60;1.00;;;;;;4211495;28;20188;-56
2024/04/02 09:39:21;;;;;;;7.00;1.53;;;10.60;70.30;;;;;;4211453;28;20258;-56
2024/04/02 09:41:24;;;;;;;3.27;1.27;;;10.60;1.00;;;;;;4205079;28;20185;-56
2024/04/02 09:43:25;;;;;;;5.30;1.50;;;10.70;1.00;;;;;;4210651;28;20545;-56
2024/04/02 09:45:28;;;;;;;3.20;1.37;;;10.70;99.90;;;;;;4213944;28;20276;-56
2024/04/02 09:47:30;;;;;;;3.57;1.00;;;10.80;99.90;;;;;;4214532;28;20233;-56
2024/04/02 09:49:33;;;;;;;5.30;1.43;;;10.80;1.00;;;;;;4214370;28;20189;-56
2024/04/02 09:51:35;;;;;;;4.50;1.40;;;10.80;1.00;;;;;;4213736;28;20168;-56
2024/04/02 09:53:36;;;;;;;3.20;1.30;;;10.90;1.00;;;;;;4213145;28;20225;-56
2024/04/02 09:55:39;;;;;;;4.30;1.50;;;11.00;1.00;;;;;;4214023;28;20180;-56
2024/04/02 09:57:40;;;;;;;3.40;1.27;;;11.00;1.00;;;;;;4213978;28;20177;-56
2024/04/02 09:59:41;;;;;;;4.43;1.50;;;11.10;99.90;;;;;;4213881;28;20228;-56
2024/04/02 10:01:44;;;;;;;4.83;1.80;;;11.10;1.00;;;;;;4214245;28;20268;-56
2024/04/02 10:03:46;;;;;;;4.17;1.53;;;11.10;1.00;;;;;;4212861;28;20177;-56
2024/04/02 10:05:46;;;;;;;3.17;1.40;;;11.30;99.90;;;;;;4211385;28;20169;-56
2024/04/02 10:07:50;;;;;;;4.87;1.50;;;11.30;1.00;;;;;;4213782;28;20179;-56
2024/04/02 10:09:56;;;;;;;5.03;1.57;;;11.30;1.00;;;;;;4211076;28;20172;-56
2024/04/02 10:11:57;;;;;;;4.80;1.63;;;11.40;1.00;;;;;;4209255;28;20902;-56
2024/04/02 10:14:12;;;;;;;3.47;1.27;;;11.40;1.00;;;;;;4213180;28;20180;-57
2024/04/02 10:16:13;;;;;;;4.97;1.30;;;11.40;1.00;;;;;;4203908;28;20191;-56
2024/04/02 10:18:15;;;;;;;4.50;1.33;;;11.40;1.00;;;;;;4213432;28;20173;-56
2024/04/02 10:20:25;;;;;;;3.63;1.50;;;11.40;1.00;;;;;;4213492;28;20234;-56
2024/04/02 10:22:36;;;;;;;4.17;1.43;;;11.40;1.00;;;;;;4211045;28;20630;-56
2024/04/02 10:24:37;;;;;;;4.33;1.27;;;11.40;1.00;;;;;;4213267;28;20203;-56
2024/04/02 10:26:39;;;;;;;4.10;1.20;;;11.30;1.00;;;;;;4213175;28;20192;-57
2024/04/02 10:28:42;;;;;;;2.83;1.40;;;11.30;99.90;;;;;;4212729;28;20200;-56
2024/04/02 10:30:45;;;;;;;4.00;1.20;;;11.30;1.00;;;;;;4213413;28;20176;-57
2024/04/02 10:32:49;;;;;;;4.93;1.30;;;11.30;1.00;;;;;;4212755;28;20218;-57
2024/04/02 10:34:49;;;;;;;4.53;1.37;;;11.30;1.00;;;;;;4213325;28;20189;-56
2024/04/02 10:36:51;;;;;;;4.07;1.53;;;11.20;99.90;;;;;;4212640;28;20684;-57
2024/04/02 10:38:51;;;;;;;4.27;1.20;;;11.20;1.00;;;;;;4212915;28;20222;-56